Terminal Aerodrome Forecast
Issued by NWS

Home | Current Version | Previous Version | Text Only | Print | Product List | Glossary On
Versions: 1 2 3 4 5 6 7 8 9 10 11 12 13 14 15 16 17 18 19 20 21 22 23 24 25
692
FTUS42 KMLB 212330
TAFSFB
TAF
KSFB 212330Z 2200/2224 12008KT P6SM BKN050 BKN250
     FM220300 14005KT P6SM BKN050 BKN250
     FM221300 14008KT P6SM SCT020 OVC050
     FM221500 14012KT P6SM VCSH SCT020 OVC035
      TEMPO 2215/2218 3SM SHRA BKN020 OVC030
     FM221800 15012KT 4SM -RA BR SCT015 OVC030
      TEMPO 2218/2221 2SM SHRA BKN020 OVC030
     FM222100 10010KT 6SM -RA BR SCT015 OVC025
      TEMPO 2221/2224 3SM SHRA BKN015 OVC025=

USA.gov is the U.S. government's official web portal to all federal, state and local government web resources and services.